createdAt,value
2023-02-27T00:00:41.040Z,1.20
2023-02-27T00:03:28.570Z,1.10
2023-02-27T00:06:17.789Z,1.20
2023-02-27T00:09:04.762Z,1.20
2023-02-27T00:11:51.676Z,1.27
2023-02-27T00:14:38.538Z,1.40
2023-02-27T00:17:28.076Z,1.10
2023-02-27T00:20:17.354Z,1.15
2023-02-27T00:23:05.975Z,1.20
2023-02-27T00:25:54.844Z,1.10
2023-02-27T00:28:41.654Z,1.00
2023-02-27T00:31:28.999Z,1.00
2023-02-27T00:34:16.020Z,1.00
2023-02-27T00:37:02.867Z,1.20
2023-02-27T00:39:50.499Z,1.30
2023-02-27T00:42:37.538Z,1.10
2023-02-27T00:45:24.430Z,1.33
2023-02-27T00:48:11.564Z,1.13
2023-02-27T00:50:58.508Z,1.20
2023-02-27T00:53:45.292Z,1.20
2023-02-27T00:56:32.319Z,1.10
2023-02-27T00:59:19.426Z,1.40
2023-02-27T01:02:07.527Z,1.35
2023-02-27T01:04:54.511Z,1.10
2023-02-27T01:07:41.385Z,1.25
2023-02-27T01:10:28.194Z,1.17
2023-02-27T01:13:15.087Z,1.50
2023-02-27T01:16:01.970Z,1.40
2023-02-27T01:18:48.892Z,1.60
2023-02-27T01:21:35.751Z,1.50
2023-02-27T01:24:22.745Z,1.30
2023-02-27T01:27:09.785Z,1.25
2023-02-27T01:29:56.730Z,1.38
2023-02-27T01:32:43.608Z,1.20
2023-02-27T01:35:30.564Z,1.38
2023-02-27T01:38:17.442Z,1.40
2023-02-27T01:41:06.613Z,1.10
2023-02-27T01:44:05.533Z,1.55
2023-02-27T01:46:52.490Z,1.35
2023-02-27T01:49:40.273Z,1.70
2023-02-27T01:55:15.052Z,1.50
2023-02-27T01:58:01.994Z,1.50
2023-02-27T02:00:49.341Z,2.17
2023-02-27T02:03:49.178Z,1.40
2023-02-27T02:06:39.898Z,1.50
2023-02-27T02:09:29.200Z,1.50
2023-02-27T02:12:18.828Z,1.35
2023-02-27T02:15:06.560Z,1.55
2023-02-27T02:20:46.008Z,1.25
2023-02-27T02:24:02.464Z,1.30
2023-02-27T02:27:10.134Z,1.20
2023-02-27T02:30:28.082Z,1.30
2023-02-27T02:33:47.805Z,1.30
2023-02-27T02:37:03.981Z,1.30
2023-02-27T02:40:09.419Z,1.40
2023-02-27T02:42:56.607Z,1.30
2023-02-27T02:46:02.357Z,1.50
2023-02-27T02:49:19.046Z,1.30
2023-02-27T02:52:17.781Z,1.30
2023-02-27T02:55:33.720Z,1.13
2023-02-27T02:58:36.032Z,1.40
2023-02-27T03:01:46.894Z,1.40
2023-02-27T03:04:51.511Z,1.27
2023-02-27T03:07:58.852Z,1.30
2023-02-27T03:11:05.922Z,1.30
2023-02-27T03:14:04.659Z,1.52
2023-02-27T03:16:54.553Z,1.58
2023-02-27T03:20:15.725Z,1.40
2023-02-27T03:23:09.731Z,1.13
2023-02-27T03:25:58.485Z,1.27
2023-02-27T03:29:02.807Z,1.58
2023-02-27T03:32:09.500Z,1.40
2023-02-27T03:34:56.636Z,1.20
2023-02-27T03:38:18.507Z,1.40
2023-02-27T03:41:15.265Z,1.30
2023-02-27T03:44:33.187Z,1.40
2023-02-27T03:47:20.673Z,1.25
2023-02-27T03:50:08.808Z,1.40
2023-02-27T03:52:56.412Z,1.35
2023-02-27T03:55:47.687Z,1.40
2023-02-27T03:58:35.529Z,1.38
2023-02-27T04:01:22.685Z,1.10
2023-02-27T04:04:15.324Z,1.67
2023-02-27T04:07:33.894Z,1.40
2023-02-27T04:10:42.928Z,1.40
2023-02-27T04:13:55.520Z,1.40
2023-02-27T04:17:02.351Z,1.30
2023-02-27T04:19:51.882Z,1.40
2023-02-27T04:22:51.290Z,1.33
2023-02-27T04:26:10.614Z,1.30
2023-02-27T04:29:21.638Z,1.33
2023-02-27T04:32:35.720Z,1.48
2023-02-27T04:35:38.378Z,1.40
2023-02-27T04:38:33.649Z,1.40
2023-02-27T04:41:21.998Z,1.35
2023-02-27T04:44:11.808Z,1.58
2023-02-27T04:47:00.985Z,1.40
2023-02-27T04:49:54.455Z,1.40
2023-02-27T04:52:45.820Z,1.40
2023-02-27T04:55:43.223Z,1.45
2023-02-27T04:58:44.328Z,1.60
2023-02-27T05:01:41.887Z,1.50
2023-02-27T05:04:34.573Z,1.60
2023-02-27T05:07:26.715Z,1.63
2023-02-27T05:10:36.716Z,1.70
2023-02-27T05:13:32.115Z,1.60
2023-02-27T05:16:21.809Z,1.67
2023-02-27T05:19:09.456Z,1.50
2023-02-27T05:22:03.704Z,1.80
2023-02-27T05:24:50.582Z,1.70
2023-02-27T05:27:48.475Z,1.88
2023-02-27T05:30:56.939Z,1.73
2023-02-27T05:34:28.353Z,2.00
2023-02-27T05:37:20.295Z,1.67
2023-02-27T05:40:10.249Z,1.80
2023-02-27T05:43:12.949Z,1.92
2023-02-27T05:46:05.397Z,2.00
2023-02-27T05:49:00.109Z,1.88
2023-02-27T05:51:50.055Z,1.67
2023-02-27T05:54:39.953Z,1.92
2023-02-27T05:57:33.652Z,1.98
2023-02-27T06:00:33.194Z,1.80
2023-02-27T06:03:20.595Z,1.80
2023-02-27T06:06:12.541Z,1.83
2023-02-27T06:08:59.461Z,1.70
2023-02-27T06:11:46.367Z,1.70
2023-02-27T06:14:33.162Z,2.03
2023-02-27T06:17:20.125Z,1.80
2023-02-27T06:20:08.430Z,1.75
2023-02-27T06:22:55.249Z,1.90
2023-02-27T06:25:44.878Z,1.97
2023-02-27T06:28:31.884Z,1.60
2023-02-27T06:31:18.816Z,2.03
2023-02-27T06:34:05.688Z,1.58
2023-02-27T06:36:52.530Z,1.75
2023-02-27T06:39:39.306Z,1.90
2023-02-27T06:42:26.134Z,1.93
2023-02-27T06:45:15.099Z,1.80
2023-02-27T06:48:02.021Z,1.80
2023-02-27T06:50:53.830Z,2.10
2023-02-27T06:53:40.719Z,1.70
2023-02-27T06:56:29.876Z,2.10
2023-02-27T06:59:16.766Z,2.10
2023-02-27T07:02:03.682Z,2.40
2023-02-27T07:04:50.604Z,1.98
2023-02-27T07:07:38.733Z,2.40
2023-02-27T07:10:25.880Z,2.08
2023-02-27T07:13:16.805Z,2.10
2023-02-27T07:16:05.219Z,1.80
2023-02-27T07:18:52.099Z,2.15
2023-02-27T07:21:38.970Z,2.30
2023-02-27T07:24:26.224Z,2.28
2023-02-27T07:27:13.167Z,2.00
2023-02-27T07:30:01.205Z,1.98
2023-02-27T07:32:48.149Z,2.10
2023-02-27T07:35:35.221Z,2.28
2023-02-27T07:38:24.081Z,2.58
2023-02-27T07:41:21.173Z,2.40
2023-02-27T07:44:16.299Z,2.55
2023-02-27T07:47:03.557Z,2.40
2023-02-27T07:49:50.396Z,2.40
2023-02-27T07:52:37.179Z,2.77
2023-02-27T07:55:24.057Z,2.77
2023-02-27T07:58:10.907Z,2.58
2023-02-27T08:00:58.013Z,2.43
2023-02-27T08:03:44.819Z,2.28
2023-02-27T08:06:31.758Z,2.37
2023-02-27T08:09:18.587Z,2.47
2023-02-27T08:12:05.484Z,2.20
2023-02-27T08:14:52.392Z,2.90
2023-02-27T08:17:39.550Z,2.55
2023-02-27T08:20:26.465Z,2.45
2023-02-27T08:23:13.369Z,2.55
2023-02-27T08:26:01.273Z,2.92
2023-02-27T08:28:48.361Z,2.60
2023-02-27T08:31:35.161Z,2.45
2023-02-27T08:34:22.078Z,2.63
2023-02-27T08:37:08.877Z,2.20
2023-02-27T08:39:55.737Z,2.58
2023-02-27T08:42:42.785Z,2.50
2023-02-27T08:45:29.686Z,2.65
2023-02-27T08:48:18.655Z,2.40
2023-02-27T08:51:05.715Z,2.45
2023-02-27T08:53:53.001Z,2.40
2023-02-27T08:56:40.014Z,2.47
2023-02-27T08:59:26.982Z,2.70
2023-02-27T09:02:14.002Z,2.53
2023-02-27T09:05:01.438Z,2.20
2023-02-27T09:07:48.633Z,2.53
2023-02-27T09:10:35.569Z,2.63
2023-02-27T09:13:22.467Z,3.05
2023-02-27T09:16:10.317Z,2.90
2023-02-27T09:18:57.438Z,3.00
2023-02-27T09:21:44.201Z,2.40
2023-02-27T09:24:31.058Z,2.63
2023-02-27T09:27:18.066Z,2.30
2023-02-27T09:30:05.525Z,2.40
2023-02-27T09:32:52.517Z,2.30
2023-02-27T09:35:39.520Z,2.57
2023-02-27T09:38:26.560Z,2.90
2023-02-27T09:41:36.724Z,2.40
2023-02-27T09:44:45.156Z,2.17
2023-02-27T09:47:44.251Z,2.58
2023-02-27T09:50:34.255Z,2.05
2023-02-27T09:53:52.832Z,2.47
2023-02-27T09:56:50.414Z,2.00
2023-02-27T09:59:43.333Z,2.20
2023-02-27T10:02:55.459Z,1.83
2023-02-27T10:05:59.669Z,1.90
2023-02-27T10:08:58.588Z,1.70
2023-02-27T10:12:07.404Z,2.20
2023-02-27T10:17:51.335Z,1.70
2023-02-27T10:20:45.950Z,1.35
2023-02-27T10:24:10.532Z,1.55
2023-02-27T10:26:59.468Z,1.65
2023-02-27T10:29:46.450Z,1.50
2023-02-27T10:32:36.160Z,1.40
2023-02-27T10:35:27.624Z,1.50
2023-02-27T10:38:33.407Z,1.60
2023-02-27T10:41:21.865Z,1.40
2023-02-27T10:44:14.635Z,1.30
2023-02-27T10:47:01.735Z,1.20
2023-02-27T10:49:49.100Z,1.20
2023-02-27T10:52:52.343Z,1.40
2023-02-27T10:55:39.970Z,1.15
2023-02-27T10:58:34.644Z,1.50
2023-02-27T11:01:22.467Z,1.25
2023-02-27T11:04:10.702Z,1.52
2023-02-27T11:06:59.796Z,1.40
2023-02-27T11:10:03.894Z,1.70
2023-02-27T11:13:05.642Z,1.50
2023-02-27T11:16:03.557Z,1.50
2023-02-27T11:18:52.165Z,1.52
2023-02-27T11:21:39.098Z,2.08
2023-02-27T11:24:25.992Z,1.63
2023-02-27T11:27:29.271Z,2.50
2023-02-27T11:30:28.409Z,2.20
2023-02-27T11:33:20.009Z,2.03
2023-02-27T11:36:07.663Z,2.20
2023-02-27T11:38:56.591Z,4.30
2023-02-27T11:41:44.993Z,3.03
2023-02-27T11:44:49.990Z,5.00
2023-02-27T11:47:40.540Z,4.50
2023-02-27T11:50:42.504Z,2.90
2023-02-27T11:53:52.468Z,2.20
2023-02-27T11:56:42.163Z,2.33
2023-02-27T12:00:13.738Z,2.08
2023-02-27T12:03:12.873Z,1.92
2023-02-27T12:06:06.457Z,1.77
2023-02-27T12:09:07.430Z,2.00
2023-02-27T12:11:56.369Z,2.10
2023-02-27T12:14:50.008Z,2.00
2023-02-27T12:17:56.105Z,1.63
2023-02-27T12:21:04.375Z,1.92
2023-02-27T12:24:36.759Z,2.20
2023-02-27T12:28:00.398Z,2.10
2023-02-27T12:31:24.120Z,1.75
2023-02-27T12:34:23.619Z,1.80
2023-02-27T12:37:13.937Z,2.10
2023-02-27T12:40:09.251Z,1.90
2023-02-27T12:42:56.032Z,1.98
2023-02-27T12:46:12.599Z,2.40
2023-02-27T12:49:09.056Z,1.90
2023-02-27T12:52:30.174Z,1.90
2023-02-27T12:55:30.940Z,2.10
2023-02-27T12:58:34.845Z,1.90
2023-02-27T13:01:53.143Z,2.22
2023-02-27T13:04:47.617Z,1.77
2023-02-27T13:07:40.644Z,1.90
2023-02-27T13:10:36.065Z,1.85
2023-02-27T13:13:39.065Z,2.00
2023-02-27T13:16:55.702Z,1.60
2023-02-27T13:19:45.447Z,1.98
2023-02-27T13:22:51.275Z,2.10
2023-02-27T13:25:40.026Z,1.65
2023-02-27T13:28:29.356Z,1.85
2023-02-27T13:31:42.425Z,1.85
2023-02-27T13:34:32.284Z,1.73
2023-02-27T13:37:19.319Z,2.20
2023-02-27T13:40:30.640Z,2.00
2023-02-27T13:43:46.384Z,1.70
2023-02-27T13:46:38.068Z,2.03
2023-02-27T13:49:30.015Z,2.00
2023-02-27T13:52:33.361Z,1.88
2023-02-27T13:55:28.152Z,2.03
2023-02-27T13:58:18.267Z,2.00
2023-02-27T14:01:05.619Z,2.03
2023-02-27T14:03:58.313Z,2.10
2023-02-27T14:06:46.789Z,2.20
2023-02-27T14:09:41.153Z,2.08
2023-02-27T14:12:45.769Z,2.30
2023-02-27T14:15:34.496Z,2.00
2023-02-27T14:18:57.230Z,2.55
2023-02-27T14:21:56.263Z,2.25
2023-02-27T14:25:02.373Z,2.17
2023-02-27T14:27:57.240Z,2.05
2023-02-27T14:31:03.149Z,2.03
2023-02-27T14:33:55.217Z,2.30
2023-02-27T14:36:47.030Z,2.25
2023-02-27T14:39:36.331Z,2.25
2023-02-27T14:42:39.996Z,2.00
2023-02-27T14:45:31.059Z,2.10
2023-02-27T14:48:26.814Z,2.17
2023-02-27T14:51:15.013Z,2.13
2023-02-27T14:54:04.965Z,2.40
2023-02-27T14:57:06.962Z,2.15
2023-02-27T14:59:56.400Z,2.33
2023-02-27T15:02:43.235Z,2.40
2023-02-27T15:05:34.872Z,2.47
2023-02-27T15:08:26.429Z,2.08
2023-02-27T15:11:18.657Z,2.40
2023-02-27T15:14:06.657Z,2.22
2023-02-27T15:16:55.934Z,2.20
2023-02-27T15:20:20.829Z,2.58
2023-02-27T15:23:28.171Z,2.22
2023-02-27T15:26:15.191Z,2.58
2023-02-27T15:29:03.928Z,2.33
2023-02-27T15:31:51.829Z,2.38
2023-02-27T15:34:43.852Z,2.30
2023-02-27T15:37:33.389Z,2.13
2023-02-27T15:40:26.615Z,2.47
2023-02-27T15:43:13.572Z,2.30
2023-02-27T15:46:00.589Z,2.22
2023-02-27T15:48:48.559Z,2.22
2023-02-27T15:51:35.532Z,2.30
2023-02-27T15:54:23.134Z,2.20
2023-02-27T15:57:10.481Z,2.45
2023-02-27T15:59:59.555Z,1.98
2023-02-27T16:02:50.250Z,2.22
2023-02-27T16:05:41.399Z,2.00
2023-02-27T16:08:30.958Z,2.30
2023-02-27T16:11:25.863Z,2.00
2023-02-27T16:14:42.403Z,2.17
2023-02-27T16:17:32.297Z,2.15
2023-02-27T16:20:58.371Z,2.00
2023-02-27T16:23:46.209Z,2.00
2023-02-27T16:29:36.758Z,1.88
2023-02-27T16:32:25.070Z,2.08
2023-02-27T16:35:21.024Z,2.55
2023-02-27T16:38:08.795Z,2.50
2023-02-27T16:43:47.144Z,2.10
2023-02-27T16:46:33.999Z,1.85
2023-02-27T16:49:29.198Z,1.80
2023-02-27T16:52:16.063Z,2.00
2023-02-27T16:55:02.992Z,1.83
2023-02-27T16:57:49.886Z,1.80
2023-02-27T17:00:36.656Z,1.80
2023-02-27T17:03:23.463Z,1.90
2023-02-27T17:06:14.413Z,2.15
2023-02-27T17:09:01.326Z,1.90
2023-02-27T17:11:49.237Z,1.70
2023-02-27T17:14:36.192Z,1.60
2023-02-27T17:17:23.007Z,1.92
2023-02-27T17:20:11.702Z,1.80
2023-02-27T17:22:58.708Z,1.88
2023-02-27T17:25:45.558Z,1.90
2023-02-27T17:28:32.958Z,1.90
2023-02-27T17:31:23.100Z,2.58
2023-02-27T17:34:10.154Z,2.50
2023-02-27T17:36:57.182Z,1.85
2023-02-27T17:39:44.439Z,2.13
2023-02-27T17:42:36.875Z,2.05
2023-02-27T17:45:27.043Z,1.90
2023-02-27T17:48:14.003Z,2.05
2023-02-27T17:51:08.160Z,2.10
2023-02-27T17:53:55.161Z,1.40
2023-02-27T17:56:42.168Z,1.80
2023-02-27T17:59:28.982Z,1.80
2023-02-27T18:02:15.916Z,2.10
2023-02-27T18:05:04.773Z,1.48
2023-02-27T18:07:52.565Z,2.10
2023-02-27T18:10:40.422Z,1.90
2023-02-27T18:13:27.957Z,1.70
2023-02-27T18:16:15.357Z,1.67
2023-02-27T18:19:03.974Z,1.90
2023-02-27T18:21:53.516Z,1.50
2023-02-27T18:24:40.286Z,1.77
2023-02-27T18:27:28.140Z,1.57
2023-02-27T18:33:02.073Z,1.80
2023-02-27T18:35:49.728Z,1.95
2023-02-27T18:38:36.644Z,1.75
2023-02-27T18:41:23.885Z,2.10
2023-02-27T18:44:10.779Z,2.00
2023-02-27T18:46:57.822Z,2.07
2023-02-27T18:49:46.065Z,1.90
2023-02-27T18:52:35.621Z,1.88
2023-02-27T18:55:23.801Z,2.17
2023-02-27T18:58:10.753Z,2.07
2023-02-27T19:00:58.677Z,2.27
2023-02-27T19:03:46.135Z,1.70
2023-02-27T19:06:35.292Z,2.00
2023-02-27T19:09:22.355Z,2.30
2023-02-27T19:12:10.941Z,1.25
2023-02-27T19:14:57.727Z,1.60
2023-02-27T19:17:44.551Z,1.80
2023-02-27T19:20:31.376Z,1.80
2023-02-27T19:23:18.169Z,1.95
2023-02-27T19:26:05.176Z,2.23
2023-02-27T19:28:54.336Z,1.92
2023-02-27T19:31:41.708Z,2.10
2023-02-27T19:34:29.460Z,2.10
2023-02-27T19:40:04.172Z,1.98
2023-02-27T19:42:51.465Z,2.38
2023-02-27T19:45:40.752Z,2.42
2023-02-27T19:48:27.653Z,2.22
2023-02-27T19:51:15.278Z,2.88
2023-02-27T19:54:02.096Z,2.35
2023-02-27T19:56:49.034Z,2.27
2023-02-27T19:59:36.007Z,3.20
2023-02-27T20:02:23.440Z,3.20
2023-02-27T20:05:12.177Z,3.10
2023-02-27T20:07:59.105Z,2.40
2023-02-27T20:10:59.679Z,2.60
2023-02-27T20:13:47.943Z,2.28
2023-02-27T20:16:36.861Z,2.33
2023-02-27T20:19:24.268Z,2.33
2023-02-27T20:22:13.604Z,2.45
2023-02-27T20:25:00.733Z,2.50
2023-02-27T20:27:47.569Z,2.60
2023-02-27T20:30:34.445Z,2.40
2023-02-27T20:33:23.500Z,2.30
2023-02-27T20:36:11.563Z,2.60
2023-02-27T20:38:58.508Z,2.75
2023-02-27T20:41:45.893Z,3.10
2023-02-27T20:44:32.758Z,2.55
2023-02-27T20:47:20.084Z,2.60
2023-02-27T20:50:07.592Z,2.70
2023-02-27T20:52:55.345Z,2.30
2023-02-27T20:58:36.828Z,2.28
2023-02-27T21:01:23.839Z,2.10
2023-02-27T21:04:10.944Z,1.83
2023-02-27T21:06:57.816Z,2.30
2023-02-27T21:09:45.290Z,2.20
2023-02-27T21:12:33.400Z,2.13
2023-02-27T21:15:20.248Z,2.33
2023-02-27T21:18:07.171Z,2.07
2023-02-27T21:20:54.808Z,2.05
2023-02-27T21:23:42.445Z,2.50
2023-02-27T21:26:35.733Z,2.40
2023-02-27T21:29:22.636Z,2.40
2023-02-27T21:32:09.513Z,2.97
2023-02-27T21:34:56.554Z,2.63
2023-02-27T21:37:46.775Z,2.60
2023-02-27T21:40:33.707Z,2.42
2023-02-27T21:43:21.362Z,2.53
2023-02-27T21:46:10.565Z,2.38
2023-02-27T21:48:57.560Z,2.80
2023-02-27T21:51:44.711Z,2.60
2023-02-27T21:54:32.011Z,2.40
2023-02-27T21:57:21.516Z,2.05
2023-02-27T22:00:11.684Z,2.35
2023-02-27T22:02:58.492Z,2.67
2023-02-27T22:05:45.432Z,2.50
2023-02-27T22:08:32.288Z,2.47
2023-02-27T22:11:19.125Z,2.73
2023-02-27T22:14:06.801Z,2.63
2023-02-27T22:19:40.670Z,2.60
2023-02-27T22:22:27.497Z,2.13
2023-02-27T22:25:14.927Z,2.70
2023-02-27T22:28:01.945Z,2.40
2023-02-27T22:30:49.289Z,2.50
2023-02-27T22:33:37.147Z,2.50
2023-02-27T22:36:27.720Z,2.83
2023-02-27T22:39:14.856Z,2.78
2023-02-27T22:42:01.716Z,2.78
2023-02-27T22:44:48.519Z,2.58
2023-02-27T22:47:35.449Z,2.67
2023-02-27T22:50:22.398Z,2.67
2023-02-27T22:53:09.224Z,2.60
2023-02-27T22:55:56.890Z,2.60
2023-02-27T22:58:45.217Z,2.67
2023-02-27T23:01:34.520Z,2.80
2023-02-27T23:04:22.320Z,2.35
2023-02-27T23:07:09.430Z,2.90
2023-02-27T23:09:56.264Z,2.70
2023-02-27T23:12:43.064Z,2.77
2023-02-27T23:15:30.026Z,2.20
2023-02-27T23:18:17.174Z,2.97
2023-02-27T23:21:04.838Z,2.97
2023-02-27T23:23:53.906Z,3.13
2023-02-27T23:26:47.220Z,2.95
2023-02-27T23:29:34.045Z,2.40
2023-02-27T23:32:21.011Z,2.73
2023-02-27T23:35:08.919Z,3.00
2023-02-27T23:37:59.048Z,2.70
2023-02-27T23:40:46.542Z,2.65
2023-02-27T23:43:34.183Z,2.70
2023-02-27T23:46:21.498Z,2.65
2023-02-27T23:49:08.832Z,2.83
2023-02-27T23:51:55.668Z,2.58
2023-02-27T23:54:43.259Z,2.83
2023-02-27T23:57:30.233Z,3.03
